Date,TemperatureHighF,TemperatureAvgF,TemperatureLowF,DewpointHighF,DewpointAvgF,DewpointLowF,HumidityHigh,HumidityAvg,HumidityLow,PressureMaxIn,PressureMinIn,WindSpeedMaxMPH,WindSpeedAvgMPH,GustSpeedMaxMPH,PrecipitationSumIn
2013-1-1,35.9,30.6,16.6,28.0,20.4,8.0,76,66,52,29.98,29.80,13,4,18,0.02
2013-1-2,28.0,19.9,12.0,17.0,11.7,7.0,82,70,57,30.17,29.95,11,3,17,0.02
2013-1-3,23.0,13.5,0.3,16.0,5.0,-5.0,81,69,61,30.21,30.03,7,2,11,0.04
2013-1-4,36.0,30.5,22.7,25.0,21.3,16.0,80,69,59,30.03,29.87,16,7,20,0.05
2013-1-5,38.9,32.0,26.1,25.0,21.9,19.0,78,67,54,30.24,29.94,13,3,21,0.08
2013-1-6,39.8,33.4,27.5,29.0,26.6,22.0,93,77,64,30.19,29.92,10,5,14,0.09
2013-1-7,36.9,32.3,26.8,29.0,24.8,20.0,89,74,60,30.36,30.02,10,3,15,0.01
2013-1-8,43.6,35.1,27.7,29.0,26.1,20.0,82,70,54,30.38,30.28,11,6,17,0.01
2013-1-9,40.6,36.2,29.6,35.0,30.1,25.0,86,79,64,30.36,30.07,14,5,17,0.00
2013-1-10,43.7,38.3,32.7,32.0,24.9,23.0,76,59,47,30.53,30.16,11,4,21,0.00
2013-1-11,39.3,33.7,27.5,38.0,29.4,23.0,97,84,69,30.53,30.13,11,3,13,0.27
2013-1-12,42.7,39.5,36.0,42.0,38.9,35.0,100,98,97,30.16,30.09,6,2,10,0.29
2013-1-13,45.2,42.7,39.5,45.0,42.2,39.0,99,98,98,30.13,29.97,12,5,13,0.00
2013-1-14,50.9,43.3,33.8,50.0,39.2,25.0,99,86,70,30.29,29.85,16,5,22,0.09
2013-1-15,35.6,32.7,29.5,27.0,24.6,23.0,81,72,65,30.34,30.21,6,2,13,0.09
2013-1-16,31.4,29.7,27.6,30.0,27.9,22.0,97,93,69,30.21,29.83,10,2,13,0.00
2013-1-17,38.8,32.1,24.4,32.0,26.6,12.0,97,81,59,30.10,29.88,9,4,14,0.28
2013-1-18,25.3,21.2,17.1,12.0,7.4,0.0,69,56,42,30.43,30.04,11,6,18,0.28
2013-1-19,44.7,34.2,23.6,30.0,22.3,11.0,73,62,47,30.36,29.85,22,8,22,0.02
2013-1-20,49.2,38.3,24.9,31.0,23.6,8.0,79,58,31,30.00,29.62,19,9,35,0.02
2013-1-21,27.1,23.1,18.4,21.0,13.0,6.0,92,67,51,30.06,29.79,9,4,15,0.00
2013-1-22,20.6,15.9,8.5,19.0,1.9,-5.0,92,56,36,30.15,29.78,15,6,23,0.00
2013-1-23,17.3,9.6,5.0,-1.0,-3.9,-7.0,71,56,38,30.20,30.10,11,4,17,0.00
2013-1-24,20.1,10.1,0.9,3.0,-2.7,-6.0,78,58,37,30.35,30.14,17,4,22,0.00
2013-1-25,19.0,13.2,6.3,14.0,4.4,0.0,91,69,46,30.39,30.06,7,1,10,0.00
2013-1-26,24.0,15.3,7.2,12.0,7.0,3.0,91,72,47,30.35,30.04,14,4,17,0.00
2013-1-27,31.4,20.0,9.4,11.0,5.8,1.0,84,57,33,30.51,30.34,10,2,11,0.00
2013-1-28,32.3,26.4,19.0,31.0,20.2,2.0,96,79,45,30.48,29.97,11,5,16,0.01
2013-1-29,46.6,36.6,32.3,40.0,34.9,31.0,97,93,77,30.13,29.98,12,4,15,0.12
2013-1-30,58.2,48.9,37.2,56.0,47.9,37.0,98,96,91,30.07,29.32,19,9,27,0.25
2013-1-31,58.5,42.4,25.4,57.0,32.5,14.0,98,70,39,29.68,28.96,30,11,37,0.30
2013-2-1,30.0,24.6,19.7,14.0,9.8,5.0,67,54,38,30.16,29.68,16,7,25,0.30
2013-2-2,27.5,20.6,15.7,17.0,10.6,7.0,91,67,43,30.25,30.04,17,6,24,0.00
2013-2-3,28.4,21.0,12.7,19.0,15.5,11.0,92,80,60,30.04,29.76,6,2,9,0.02
2013-2-4,28.3,22.9,18.9,19.0,11.3,5.0,91,63,40,29.94,29.77,16,4,21,0.02
2013-2-5,29.2,24.2,19.7,24.0,19.2,12.0,92,82,66,29.98,29.87,6,1,9,0.00
2013-2-6,37.6,28.3,22.8,27.0,18.4,-1.0,95,70,36,30.34,29.89,10,4,16,0.02
2013-2-7,31.6,23.7,15.7,16.0,7.5,1.0,68,51,39,30.49,30.33,8,2,14,0.02
2013-2-8,31.1,27.4,23.0,28.0,23.4,16.0,95,85,64,30.35,29.70,13,5,19,0.00
2013-2-9,23.4,19.7,12.3,22.0,18.2,10.0,95,93,90,30.33,29.76,25,10,34,0.00
2013-2-10,33.2,19.3,6.8,31.0,16.7,4.0,93,89,86,30.48,30.31,9,2,11,0.16
2013-2-11,39.9,34.7,25.1,39.0,33.7,22.0,98,96,87,30.32,29.66,14,5,16,0.19
2013-2-12,41.9,36.8,33.9,35.0,28.8,24.0,98,74,59,29.92,29.67,13,5,19,0.19
2013-2-13,40.8,34.1,27.0,29.0,23.4,21.0,94,66,50,29.91,29.68,7,1,10,0.00
2013-2-14,41.3,33.4,24.8,29.0,25.5,21.0,96,74,52,29.96,29.70,9,3,12,0.02
2013-2-15,50.5,40.3,32.0,32.0,28.6,26.0,82,64,45,29.97,29.86,13,5,17,0.02
2013-2-16,33.4,29.6,25.2,30.0,21.6,13.0,94,73,58,29.96,29.75,10,5,18,0.01
2013-2-17,27.9,21.3,14.3,12.0,4.7,1.0,62,50,34,29.92,29.63,21,10,28,0.01
2013-2-18,33.8,22.7,12.1,11.0,5.8,2.0,64,50,34,30.18,29.92,13,5,21,0.00
2013-2-19,41.6,34.0,25.8,37.0,26.1,12.0,97,74,53,30.18,29.64,15,7,25,0.19
2013-2-20,35.0,27.5,21.7,33.0,15.5,9.0,93,61,46,29.91,29.64,13,7,27,0.19
2013-2-21,31.8,23.9,19.7,16.0,13.4,12.0,76,65,51,30.32,29.89,15,6,21,0.00
2013-2-22,36.5,28.4,20.7,27.0,20.7,15.0,83,74,57,30.42,30.27,11,4,17,0.00
2013-2-23,38.0,34.5,31.8,36.0,32.0,27.0,96,90,81,30.26,29.83,9,3,15,0.04
2013-2-24,39.5,34.3,29.7,36.0,31.4,24.0,98,89,74,29.95,29.73,11,3,15,0.03
2013-2-25,43.1,34.6,26.6,30.0,26.2,23.0,88,72,58,30.23,29.95,10,3,14,0.03
2013-2-26,42.9,35.7,29.7,30.0,26.9,25.0,85,71,56,30.28,29.95,13,3,20,0.02
2013-2-27,44.2,39.4,32.9,41.0,37.2,29.0,96,92,85,29.95,29.47,18,6,33,0.38
2013-2-28,45.5,39.1,34.6,39.0,36.1,33.0,96,89,73,29.60,29.51,6,2,10,0.06
2013-3-1,43.1,36.1,32.4,33.0,30.2,25.0,95,80,62,29.75,29.58,10,3,17,0.06
2013-3-2,36.0,31.8,26.1,27.0,24.8,23.0,87,76,65,29.75,29.67,11,4,17,0.00
2013-3-3,33.2,27.6,24.4,27.0,21.3,17.0,89,77,63,29.74,29.66,11,4,15,0.00
2013-3-4,38.5,30.2,24.6,24.0,20.9,19.0,80,69,55,29.88,29.71,12,5,22,0.00
2013-3-5,43.6,34.0,26.7,29.0,25.2,21.0,82,71,54,30.02,29.88,10,4,18,0.00
2013-3-6,41.7,36.7,32.8,35.0,29.9,27.0,87,77,65,30.01,29.91,22,6,30,0.00
2013-3-7,35.0,32.0,28.9,31.0,28.6,26.0,96,87,72,30.09,29.97,15,7,23,0.01
2013-3-8,36.2,30.9,27.8,33.0,29.1,26.0,97,93,76,30.22,30.00,21,9,30,0.10
2013-3-9,49.0,37.9,28.7,26.0,23.8,22.0,80,59,36,30.31,30.21,13,5,21,0.04
2013-3-10,51.9,39.5,30.2,34.0,28.9,22.0,86,67,48,30.36,30.23,12,4,17,0.04
2013-3-11,51.9,42.4,33.3,45.0,37.9,31.0,93,84,66,30.29,30.05,18,8,21,0.00
2013-3-12,53.3,49.1,39.0,52.0,47.3,36.0,97,93,88,30.05,29.64,22,9,27,0.90
2013-3-13,46.6,38.8,32.5,36.0,28.7,23.0,89,69,42,29.85,29.74,13,4,16,0.90
2013-3-14,34.3,29.4,24.7,28.0,15.0,9.0,81,56,44,29.92,29.81,17,7,23,0.00
2013-3-15,38.2,31.2,20.6,31.0,19.2,10.0,80,62,47,29.94,29.70,13,5,25,0.00
2013-3-16,35.3,30.6,25.8,27.0,22.0,15.0,94,72,49,29.89,29.75,8,3,15,0.00
2013-3-17,36.8,28.5,21.2,26.0,14.6,9.0,95,59,32,30.31,29.89,11,4,17,0.00
2013-3-18,34.8,26.9,17.9,26.0,12.6,5.0,93,57,37,30.41,30.06,9,3,15,0.00
2013-3-19,35.1,32.0,28.3,33.0,30.2,26.0,96,93,88,30.04,29.68,7,2,17,0.24
2013-3-20,38.9,31.8,26.1,30.0,20.4,17.0,95,64,42,29.82,29.74,16,5,24,0.11
2013-3-21,37.0,29.7,24.6,23.0,17.3,11.0,84,62,40,29.81,29.59,9,3,14,0.04
2013-3-22,36.5,30.1,21.9,24.0,19.3,13.0,79,65,52,29.83,29.68,11,4,19,0.04
2013-3-23,43.9,35.4,29.6,24.0,20.8,18.0,74,57,38,29.89,29.75,16,6,24,0.00
2013-3-24,43.3,34.2,25.1,25.0,22.0,18.0,77,62,48,29.91,29.71,13,3,16,0.00
2013-3-25,45.0,37.5,31.0,28.0,25.1,24.0,76,62,46,29.72,29.44,15,3,21,0.00
2013-3-26,47.6,38.6,32.9,33.0,27.5,23.0,83,66,48,29.83,29.58,10,2,18,0.00
2013-3-27,49.8,39.0,28.1,29.0,24.4,21.0,78,58,36,29.93,29.82,9,3,17,0.00
2013-3-28,45.7,40.0,34.3,35.0,30.9,25.0,82,70,58,30.08,29.92,10,3,19,0.00
2013-3-29,51.0,41.4,32.4,32.0,29.4,27.0,84,64,43,30.12,30.01,11,3,16,0.00
2013-3-30,56.6,43.5,30.6,32.0,25.7,20.0,88,54,26,30.14,30.02,12,2,20,0.00
2013-3-31,56.2,44.8,36.3,41.0,28.3,20.0,94,54,35,30.11,29.68,17,5,27,0.21
2013-4-1,56.7,43.2,31.1,45.0,33.6,13.0,97,72,36,29.86,29.57,20,6,30,0.22
2013-4-2,39.4,32.6,27.0,18.0,13.5,10.0,64,47,31,30.03,29.87,19,6,28,0.00
2013-4-3,43.0,33.8,28.2,17.0,14.3,11.0,60,46,31,30.27,30.03,14,6,22,0.00
2013-4-4,53.7,38.6,24.4,29.0,19.4,14.0,72,49,26,30.36,30.05,17,5,21,0.00
2013-4-5,59.0,45.4,36.2,30.0,24.3,18.0,69,47,24,30.03,29.68,13,6,20,0.00
2013-4-6,48.4,43.3,37.9,18.0,9.8,7.0,44,26,19,30.27,30.20,11,3,17,0.00
2013-4-7,55.9,47.2,35.8,43.0,32.5,21.0,85,59,33,30.26,29.95,18,9,26,0.00
2013-4-8,66.1,53.9,41.6,44.0,40.3,37.0,92,63,37,30.07,29.95,9,4,13,0.00
2013-4-9,72.8,62.1,53.2,52.0,46.3,42.0,83,58,35,29.95,29.86,14,6,23,0.00
2013-4-10,63.7,53.9,47.2,55.0,49.6,43.0,97,86,57,29.94,29.77,11,2,20,0.35
2013-4-11,54.5,45.1,35.4,54.0,38.5,29.0,97,79,59,30.07,29.79,12,5,16,0.35
2013-4-12,40.3,38.6,35.6,38.0,35.2,32.0,94,87,78,30.07,29.74,9,2,18,0.37
2013-4-13,53.9,44.4,35.6,40.0,36.0,34.0,97,75,51,29.93,29.77,12,3,12,0.01
2013-4-14,50.1,44.2,37.5,37.0,30.4,26.0,87,60,43,30.21,29.91,13,4,20,0.01
2013-4-15,60.3,46.4,34.1,37.0,31.5,26.0,80,58,40,30.36,30.21,12,4,17,0.00
2013-4-16,64.3,52.8,41.5,53.0,45.1,31.0,88,75,61,30.34,30.07,19,9,27,0.01
2013-4-17,63.3,54.1,45.9,54.0,39.2,32.0,95,61,35,30.28,30.09,13,4,17,0.05
2013-4-18,59.7,51.8,44.5,48.0,38.4,30.0,90,62,43,30.33,30.08,16,7,21,0.00
2013-4-19,72.1,62.1,51.0,63.0,58.3,49.0,97,88,73,30.08,29.57,20,11,30,0.33
2013-4-20,58.8,47.8,38.7,57.0,34.9,21.0,96,65,34,30.28,29.62,17,6,24,0.04
2013-4-21,49.9,39.6,30.0,25.0,22.0,20.0,75,51,34,30.61,30.29,16,4,20,0.04
2013-4-22,57.3,45.1,35.7,35.0,29.5,20.0,85,57,34,30.68,30.47,10,4,17,0.00
2013-4-23,50.1,40.8,30.4,41.0,35.1,27.0,88,80,71,30.50,30.11,9,2,14,0.00
2013-4-24,72.9,52.6,34.8,51.0,43.8,34.0,97,75,44,30.11,29.75,17,5,22,0.00
2013-4-25,60.8,52.2,42.9,52.0,33.2,25.0,91,51,27,30.23,29.78,15,5,22,0.00
2013-4-26,61.1,49.9,38.0,39.0,31.7,25.0,70,51,35,30.40,30.23,13,4,16,0.00
2013-4-27,65.7,52.4,37.6,35.0,29.3,22.0,69,45,20,30.42,30.24,8,2,13,0.00
2013-4-28,71.4,56.7,44.1,44.0,36.0,29.0,65,47,33,30.28,30.14,15,4,21,0.00
2013-4-29,56.1,53.3,50.5,47.0,42.9,31.0,80,69,45,30.21,30.16,11,5,15,0.00
2013-4-30,69.1,57.5,48.7,44.0,37.0,29.0,81,50,24,30.30,30.19,12,3,16,0.00
2013-5-1,72.2,57.8,44.8,44.0,34.1,25.0,74,43,22,30.44,30.31,12,3,18,0.00
2013-5-2,76.7,61.6,45.7,48.0,43.6,41.0,86,56,32,30.43,30.23,9,3,18,0.00
2013-5-3,68.9,57.9,45.6,42.0,37.0,32.0,71,48,29,30.43,30.27,9,3,17,0.00
2013-5-4,74.3,57.5,43.8,48.0,43.1,38.0,93,64,29,30.34,30.14,12,3,15,0.00
2013-5-5,71.2,52.8,37.2,44.0,39.1,34.0,96,65,26,30.27,30.13,12,2,16,0.00
2013-5-6,72.8,54.7,37.8,52.0,45.5,36.0,95,74,44,30.25,30.08,10,4,15,0.00
2013-5-7,77.7,63.1,48.7,57.0,51.9,47.0,95,70,35,30.14,30.02,14,3,16,0.00
2013-5-8,66.4,60.7,54.8,63.0,57.9,53.0,94,90,84,30.09,29.93,8,2,23,0.33
2013-5-9,63.5,56.1,50.2,58.0,54.0,49.0,98,93,76,29.98,29.85,5,1,6,0.55
2013-5-10,76.5,63.6,51.3,60.0,54.8,51.0,98,76,46,29.97,29.83,10,3,16,0.55
2013-5-11,67.4,62.6,59.4,64.0,60.7,56.0,97,93,79,29.84,29.64,13,5,17,0.36
2013-5-12,62.9,55.8,45.9,60.0,44.3,26.0,98,70,31,29.85,29.61,12,4,23,0.02
2013-5-13,51.9,44.8,37.5,34.0,31.0,28.0,77,59,45,30.07,29.86,13,4,17,0.02
2013-5-14,58.1,46.1,32.0,36.0,30.6,25.0,94,59,29,30.11,29.98,9,2,16,0.00
2013-5-15,66.5,53.4,40.5,55.0,42.7,28.0,88,68,46,30.04,29.62,17,5,24,0.04
2013-5-16,80.3,66.4,51.6,56.0,46.6,40.0,97,56,24,29.79,29.65,19,4,21,0.05
2013-5-17,68.3,58.9,49.2,46.0,41.9,36.0,74,55,40,30.17,29.79,15,4,19,0.00
2013-5-18,67.7,57.8,47.1,50.0,45.2,37.0,89,64,47,30.27,30.17,12,3,20,0.00
2013-5-19,57.5,55.5,53.3,56.0,53.6,51.0,96,93,86,30.29,30.14,8,4,15,0.09
2013-5-20,79.5,65.9,55.3,69.0,61.0,54.0,99,85,62,30.14,29.90,10,3,12,0.01
2013-5-21,87.8,74.9,63.3,72.0,67.6,62.0,97,80,53,29.93,29.73,11,5,15,0.01
2013-5-22,80.1,70.0,62.0,72.0,65.9,59.0,95,87,72,29.86,29.75,11,5,15,0.01
2013-5-23,73.9,67.6,64.1,70.0,65.9,63.0,97,94,85,29.82,29.69,11,5,16,0.22
2013-5-24,64.7,53.0,41.4,64.0,51.8,40.0,98,95,84,29.92,29.61,16,5,25,0.16
2013-5-25,49.0,44.2,41.3,44.0,41.0,39.0,96,89,75,29.93,29.85,14,8,31,0.05
2013-5-26,59.4,50.8,43.5,43.0,39.6,37.0,84,67,49,30.14,29.86,16,5,24,0.03
2013-5-27,72.8,57.2,41.7,45.0,39.9,36.0,83,56,28,30.21,30.06,9,3,13,0.01
2013-5-28,68.4,57.1,47.8,56.0,47.7,37.0,97,73,43,30.18,30.09,9,2,12,0.01
2013-5-29,79.7,66.6,55.8,72.0,62.9,55.0,98,89,74,30.10,29.93,12,4,15,0.01
2013-5-30,88.6,75.9,64.4,72.0,67.2,63.0,97,76,51,30.07,29.97,8,3,15,0.00
2013-5-31,90.5,78.2,67.2,71.0,66.2,62.0,87,69,42,30.06,29.90,13,4,15,0.21
2013-6-1,88.9,77.2,67.1,73.0,67.4,61.0,88,72,52,29.94,29.81,12,5,17,0.21
2013-6-2,86.7,76.7,70.2,72.0,68.7,66.0,90,77,61,29.83,29.67,15,6,21,0.00
2013-6-3,74.9,67.8,55.1,68.0,62.6,48.0,97,84,69,29.86,29.72,7,2,9,0.29
2013-6-4,71.8,59.3,46.2,50.0,45.8,42.0,88,63,41,30.08,29.86,9,2,12,0.29
2013-6-5,72.3,61.4,50.5,53.0,46.4,41.0,79,59,38,30.18,30.05,6,2,9,0.00
2013-6-6,69.2,59.5,50.9,57.0,52.3,47.0,94,78,61,30.12,29.98,9,3,17,0.06
2013-6-7,59.6,57.4,54.8,58.0,55.7,53.0,96,94,91,30.00,29.70,10,2,16,0.03
2013-6-8,74.2,62.3,53.5,65.0,58.3,53.0,98,87,71,30.02,29.62,8,3,14,0.03
2013-6-9,76.8,66.0,54.4,64.0,58.3,54.0,98,78,55,30.13,30.02,7,1,9,0.00
2013-6-10,69.3,63.1,58.7,65.0,58.9,55.0,95,86,69,30.13,29.79,15,4,26,0.00
2013-6-11,75.1,65.3,59.3,68.0,62.0,56.0,98,89,76,29.79,29.55,13,4,25,0.00
2013-6-12,72.1,63.9,56.0,57.0,54.2,51.0,86,71,56,29.80,29.62,14,4,22,0.00
2013-6-13,60.7,56.3,51.8,56.0,53.9,51.0,96,91,78,29.79,29.54,8,2,19,0.00
2013-6-14,73.5,58.8,50.2,61.0,54.3,49.0,97,86,54,29.84,29.57,10,2,15,0.00
2013-6-15,77.1,64.8,51.9,58.0,52.9,47.0,97,69,41,29.96,29.84,11,2,12,0.00
2013-6-16,74.9,66.2,54.4,64.0,56.7,48.0,90,72,56,29.93,29.70,14,4,19,0.00
2013-6-17,84.4,70.0,61.0,68.0,61.5,56.0,95,77,41,29.86,29.76,11,3,23,0.00
2013-6-18,78.5,65.1,57.5,69.0,60.7,56.0,95,86,65,29.88,29.79,9,2,14,0.00
2013-6-19,72.6,62.0,52.9,56.0,51.5,44.0,97,71,43,30.13,29.87,13,2,13,0.00
2013-6-20,79.6,65.3,50.1,59.0,51.9,41.0,87,64,42,30.23,30.13,8,3,14,0.00
2013-6-21,82.0,69.4,58.0,66.0,59.7,54.0,87,72,55,30.23,30.15,8,4,13,0.00
2013-6-22,83.4,71.9,60.8,67.0,60.7,56.0,85,69,50,30.20,30.04,11,5,15,0.00
2013-6-23,89.8,76.8,65.3,72.0,66.1,58.0,88,71,47,30.12,29.96,13,6,17,0.00
2013-6-24,90.0,77.2,66.6,75.0,70.0,65.0,95,80,57,29.99,29.86,10,3,14,0.01
2013-6-25,89.4,75.5,65.0,75.0,69.8,64.0,96,83,54,29.94,29.72,14,4,17,0.24
2013-6-26,79.5,73.8,67.4,72.0,69.3,66.0,95,86,71,29.78,29.70,8,3,12,0.24
2013-6-27,84.2,73.1,64.9,73.0,68.9,64.0,98,87,65,29.77,29.48,11,2,16,0.38
2013-6-28,82.2,74.3,67.1,73.0,69.1,66.0,96,84,64,29.48,29.39,14,5,19,0.62
2013-6-29,82.9,73.1,65.1,71.0,67.2,64.0,98,83,57,29.63,29.43,11,4,13,0.62
2013-6-30,83.0,71.6,66.0,75.0,68.9,65.0,98,91,75,29.86,29.64,8,3,14,1.10
2013-7-1,74.8,71.6,69.1,73.0,70.7,69.0,100,97,93,29.99,29.86,10,2,12,0.60
2013-7-2,83.4,75.9,71.1,77.0,72.7,70.0,98,90,75,30.10,29.99,14,5,16,0.09
2013-7-3,84.9,77.0,70.6,76.0,72.3,69.0,95,85,67,30.17,30.08,12,6,16,0.09
2013-7-4,88.2,79.6,72.1,76.0,73.3,71.0,97,82,62,30.18,30.06,11,5,23,0.00
2013-7-5,90.0,81.1,73.3,77.0,72.9,70.0,92,77,58,30.14,29.99,10,5,15,0.00
2013-7-6,90.1,80.9,74.2,76.0,73.2,71.0,92,78,56,30.05,29.94,8,4,14,0.00
2013-7-7,91.7,81.2,73.4,78.0,74.1,67.0,94,80,60,29.98,29.84,13,3,14,0.00
2013-7-8,87.7,76.0,65.9,74.0,69.0,65.0,96,79,61,29.97,29.88,10,4,15,0.59
2013-7-9,86.6,74.1,64.8,76.0,70.0,64.0,99,87,64,30.03,29.93,8,1,11,0.01
2013-7-10,83.8,76.2,71.5,78.0,72.9,70.0,95,89,75,29.95,29.72,10,4,17,0.65
2013-7-11,81.8,74.5,66.9,73.0,69.4,63.0,94,84,71,29.88,29.72,6,2,9,0.65
2013-7-12,79.7,71.6,63.2,69.0,64.3,60.0,91,78,65,30.09,29.89,10,2,13,0.00
2013-7-13,78.4,70.9,65.5,74.0,67.8,60.0,95,89,74,30.24,30.09,5,1,9,0.09
2013-7-14,86.8,75.9,70.4,76.0,72.6,70.0,99,90,69,30.28,30.20,4,1,7,0.09
2013-7-24,66.2,61.8,58.8,55.0,53.7,52.0,79,75,68,29.92,29.82,7,3,13,0.00
2013-7-25,69.0,61.6,55.0,62.0,55.5,50.0,87,80,75,30.04,29.93,11,2,15,0.00
2013-7-26,79.4,68.3,60.3,66.0,60.9,57.0,90,78,56,30.01,29.94,11,2,11,0.00
2013-7-27,83.6,71.5,60.3,67.0,62.6,59.0,95,75,50,30.00,29.90,8,3,14,0.00
2013-7-28,76.8,68.7,63.7,72.0,65.6,62.0,96,90,76,29.95,29.87,10,2,14,0.15
2013-7-29,82.5,72.2,65.1,69.0,64.0,56.0,98,78,45,30.05,29.91,10,2,14,0.15
2013-7-30,78.3,67.5,56.2,63.0,58.9,54.0,96,75,51,30.13,30.04,5,1,10,0.00
2013-7-31,80.9,69.0,57.5,65.0,60.0,56.0,96,75,49,30.14,29.98,6,1,8,0.00
2013-8-1,74.3,66.7,64.0,66.0,63.4,61.0,95,89,70,29.99,29.80,11,5,17,0.17
2013-8-2,80.2,70.9,63.5,67.0,63.8,62.0,98,80,55,29.85,29.75,12,2,17,0.26
2013-8-3,78.9,69.4,63.5,68.0,62.4,55.0,92,79,63,29.85,29.76,10,4,14,0.00
2013-8-4,77.6,65.4,55.7,63.0,56.9,52.0,95,75,50,29.92,29.80,11,2,21,0.05
2013-8-5,75.8,64.5,52.1,55.0,50.9,48.0,95,64,40,30.02,29.91,12,3,16,0.05
2013-8-6,80.2,67.1,52.9,61.0,54.3,48.0,85,65,43,30.09,30.00,9,2,12,0.00
2013-8-7,77.3,68.5,60.7,66.0,61.8,57.0,90,79,64,30.11,30.00,9,5,17,0.00
2013-8-8,82.0,73.0,67.8,73.0,69.1,66.0,96,88,70,30.01,29.93,11,6,14,0.02
2013-8-9,80.0,72.9,70.6,76.0,71.4,70.0,98,95,84,29.95,29.73,10,4,15,3.92
2013-8-10,82.1,71.1,62.1,70.0,62.8,53.0,98,77,49,30.01,29.80,8,2,13,0.01
2013-8-11,78.2,66.6,52.2,62.0,55.8,49.0,92,70,51,30.11,29.97,8,2,13,0.01
2013-8-12,80.9,70.4,60.2,65.0,60.8,58.0,95,74,48,30.00,29.87,7,2,9,0.00
2013-8-13,76.0,69.2,63.6,70.0,66.3,63.0,97,90,78,29.87,29.62,8,3,13,0.86
2013-8-14,71.6,62.7,54.0,62.0,54.3,51.0,97,76,52,29.99,29.70,12,3,22,0.86
2013-8-15,75.1,61.3,51.3,57.0,53.0,49.0,94,76,48,30.10,29.99,7,2,13,0.00
2013-8-16,79.7,65.8,55.1,61.0,55.5,52.0,92,71,43,30.15,30.08,6,1,8,0.00
2013-8-17,80.9,67.2,55.1,64.0,57.7,53.0,94,73,44,30.25,30.16,5,1,8,0.00
2013-8-18,74.4,66.9,61.1,68.0,62.1,56.0,94,84,74,30.23,30.08,3,0,5,0.00
2013-8-19,77.2,68.7,60.8,68.0,63.4,59.0,96,84,68,30.07,29.97,6,3,8,0.00
2013-8-20,84.3,71.3,60.8,70.0,63.3,60.0,98,78,49,30.09,30.00,5,2,12,0.00
2013-8-21,85.9,72.7,61.2,70.0,64.4,60.0,97,77,49,30.15,29.98,9,2,12,0.00
2013-8-22,82.5,73.3,66.9,72.0,67.8,63.0,93,83,66,30.01,29.82,12,5,15,0.02
2013-8-23,77.3,69.2,57.9,69.0,60.1,51.0,96,74,51,30.10,29.83,13,3,16,0.02
2013-8-24,76.8,64.5,53.3,60.0,53.9,49.0,87,70,50,30.32,30.11,7,1,10,0.00
2013-8-25,80.6,66.9,53.9,61.0,56.3,52.0,96,71,47,30.38,30.17,9,3,17,0.00
2013-8-26,74.8,68.5,63.7,69.0,62.8,56.0,96,82,69,30.18,29.87,9,5,12,0.20
2013-8-27,81.1,71.7,67.0,71.0,68.1,66.0,98,89,68,29.87,29.77,10,3,13,0.04
2013-8-28,85.8,71.7,65.3,74.0,67.8,64.0,98,88,59,29.86,29.79,15,1,22,0.04
2013-8-29,79.7,70.5,65.6,69.0,66.4,64.0,98,87,68,29.98,29.85,5,1,12,0.03
2013-8-30,83.0,72.9,65.7,71.0,67.5,64.0,95,84,64,29.97,29.79,9,4,10,0.03
2013-8-31,80.7,74.6,70.6,75.0,71.1,68.0,96,89,81,29.79,29.72,11,5,16,0.00
2013-9-1,80.0,75.1,72.3,75.0,72.7,71.0,97,92,82,29.79,29.74,7,2,10,0.01
2013-9-2,81.1,71.7,64.0,74.0,69.6,63.0,98,93,78,29.76,29.64,8,2,14,0.56
2013-9-3,75.3,66.1,60.6,67.0,63.1,57.0,99,90,63,29.82,29.68,6,1,11,0.09
2013-9-4,79.4,66.3,55.1,62.0,57.6,54.0,98,76,51,29.94,29.83,8,2,14,0.10
2013-9-5,70.4,63.3,52.6,60.0,52.8,44.0,91,70,46,30.13,29.86,12,3,16,0.00
2013-9-6,68.0,55.7,44.4,50.0,44.9,41.0,93,69,38,30.24,30.09,7,1,11,0.00
2013-9-7,75.7,62.1,50.2,59.0,51.6,44.0,83,70,47,30.09,29.84,10,4,11,0.00
2013-9-8,75.1,64.7,53.5,65.0,54.4,44.0,87,70,46,30.06,29.77,12,4,17,0.00
2013-9-9,70.1,57.8,44.2,56.0,48.7,42.0,95,73,52,30.21,30.05,9,3,14,0.00
2013-9-10,79.7,69.9,62.1,74.0,66.9,57.0,97,90,81,30.13,29.98,15,7,17,0.00
2013-9-11,92.5,79.7,70.1,80.0,73.9,67.0,97,83,64,30.06,29.89,10,4,18,0.00
2013-9-12,81.8,72.9,67.5,75.0,69.7,66.0,97,89,77,29.91,29.61,9,4,21,0.00
2013-9-13,72.1,64.1,52.8,67.0,60.7,48.0,98,89,73,29.80,29.57,10,2,15,0.00
2013-9-14,62.8,54.7,47.6,53.0,48.6,45.0,91,81,64,30.08,29.80,8,2,14,0.00
2013-9-15,67.6,54.5,43.2,54.0,47.9,42.0,97,80,50,30.18,30.04,6,2,9,0.00
2013-9-16,66.9,57.7,46.8,57.0,52.4,42.0,93,83,67,30.25,30.00,10,3,15,0.00
2013-9-17,62.4,49.9,39.2,47.0,42.5,37.0,93,77,55,30.42,30.25,11,2,13,0.00
2013-9-18,70.8,55.3,42.4,52.0,46.5,41.0,97,75,44,30.32,30.13,8,2,9,0.00
2013-9-19,75.7,60.2,47.9,56.0,50.3,45.0,92,72,40,30.15,30.01,6,3,9,0.00
2013-9-20,78.8,64.1,53.1,60.0,54.9,50.0,90,74,47,30.06,29.93,9,3,12,0.00
2013-9-21,73.3,64.2,56.6,65.0,60.4,55.0,96,88,74,29.96,29.59,16,8,22,0.00
2013-9-22,66.4,59.0,50.7,65.0,52.3,42.0,97,79,59,29.87,29.58,10,3,16,0.00
2013-9-23,60.3,51.4,43.4,46.0,42.1,39.0,85,71,57,30.02,29.87,12,4,16,0.00
2013-9-24,69.2,52.8,38.8,51.0,43.7,37.0,96,74,49,30.02,29.83,6,2,10,0.00
2013-9-25,69.3,55.6,43.0,56.0,48.2,40.0,95,78,52,29.94,29.84,5,1,10,0.00
2013-9-26,65.7,56.8,49.9,54.0,50.6,48.0,97,81,59,30.09,29.93,8,2,13,0.00
2013-9-27,64.5,55.4,47.2,55.0,50.9,46.0,96,85,69,30.25,30.09,5,1,8,0.00
2013-9-28,73.4,57.8,46.4,58.0,51.9,45.0,97,82,53,30.32,30.20,6,1,7,0.00
2013-9-29,73.8,58.9,48.4,59.0,52.6,47.0,97,81,51,30.21,30.02,5,1,7,0.00
2013-9-30,72.7,58.9,48.9,57.0,51.7,47.0,95,79,51,30.06,29.92,4,1,9,0.00
2013-10-1,77.3,61.6,49.8,64.0,55.1,49.0,97,81,53,29.98,29.85,5,1,8,0.00
2013-10-2,79.2,65.4,55.2,66.0,58.8,54.0,95,80,60,29.97,29.85,8,2,11,0.00
2013-10-3,75.1,62.9,51.6,58.0,53.7,47.0,95,73,44,30.09,29.98,5,1,6,0.00
2013-10-4,79.9,66.7,59.1,68.0,62.2,56.0,95,86,68,30.03,29.93,5,1,10,0.05
2013-10-5,72.5,61.8,59.9,67.0,53.7,-99.9,98,90,82,30.06,0.00,4,-26,5,0.00
2013-10-6,61.3,61.0,60.7,60.0,60.0,60.0,96,96,96,30.03,30.01,3,2,12,0.00
2013-10-7,72.6,65.4,57.0,69.0,63.4,53.0,97,93,84,30.01,29.68,27,8,31,0.56
2013-10-8,-200.0,0.0,200.0,-99.9,-99.9,-99.9,0,0,100,0.00,40.00,0,-999,0,0.00
2013-10-9,64.8,56.2,49.0,47.0,44.9,40.0,85,68,41,30.34,0.00,3,0,11,0.00
2013-10-10,55.9,50.3,42.9,49.0,45.0,40.0,89,82,76,30.30,30.12,5,2,12,0.00
2013-10-11,69.2,58.5,49.8,61.0,52.2,45.0,88,80,70,30.12,30.02,6,1,11,0.00
2013-10-12,73.5,58.0,46.4,56.0,50.2,43.0,90,76,52,30.30,30.10,9,2,15,0.00
2013-10-13,67.7,55.4,46.2,53.0,48.7,45.0,97,80,56,30.38,30.29,8,2,12,0.00
2013-10-14,68.0,54.6,43.8,52.0,48.0,43.0,97,80,50,30.35,30.19,6,1,10,0.00
2013-10-15,69.0,58.4,50.2,59.0,51.0,33.0,96,78,41,30.24,30.09,5,1,10,0.00
2013-10-16,61.9,55.4,48.5,56.0,50.7,43.0,92,84,70,30.10,29.87,8,2,9,0.00
2013-10-17,73.2,64.2,58.6,61.0,58.0,55.0,95,82,53,29.87,29.61,10,5,17,0.03
2013-10-18,65.7,58.8,50.2,61.0,47.6,40.0,94,68,42,29.92,29.58,13,4,19,0.04
2013-10-19,64.5,53.3,43.9,51.0,43.8,40.0,93,72,44,29.94,29.70,16,5,18,0.09
2013-10-20,60.1,51.1,43.3,50.0,41.0,37.0,95,71,44,30.02,29.70,11,3,16,0.10
2013-10-21,64.8,52.5,42.0,44.0,40.1,37.0,83,65,41,30.11,29.94,11,5,18,0.00
2013-10-22,59.5,51.4,43.0,50.0,45.4,38.0,91,80,66,29.94,29.70,9,4,12,0.00
2013-10-23,53.8,43.2,34.7,39.0,35.5,32.0,93,75,48,29.79,29.59,6,1,9,0.00
2013-10-24,51.2,42.4,34.1,37.0,31.0,28.0,90,66,43,29.94,29.71,18,5,23,0.00
2013-10-25,48.3,41.0,34.8,33.0,31.0,29.0,85,69,53,30.18,29.94,9,3,14,0.00
2013-10-26,53.0,44.1,35.6,34.0,31.4,28.0,88,64,40,30.18,29.86,17,7,32,0.00
2013-10-27,54.5,47.0,39.6,35.0,31.9,29.0,74,57,41,30.08,29.81,10,3,19,0.00
2013-10-28,57.7,44.8,34.4,36.0,33.2,29.0,87,66,44,30.32,30.07,10,4,16,0.00
2013-10-29,50.0,40.5,34.9,30.0,28.1,25.0,74,62,45,30.42,30.32,8,1,8,0.00
2013-10-30,54.8,43.5,34.4,47.0,37.6,26.0,95,80,68,30.33,30.15,7,1,9,0.00
2013-10-31,59.6,52.2,42.9,58.0,51.2,41.0,98,96,93,30.21,29.75,12,4,19,0.22
2013-11-1,68.2,62.4,53.6,63.0,55.6,46.0,95,79,50,29.75,29.45,23,9,33,0.37
2013-11-2,64.7,52.4,44.9,48.0,44.4,41.0,88,75,48,29.75,29.57,12,2,14,0.00
2013-11-3,45.7,37.6,28.8,42.0,29.7,18.0,89,73,59,30.45,29.75,15,5,18,0.00
2013-11-4,43.2,33.0,23.9,21.0,19.4,18.0,78,59,39,30.66,30.45,7,2,12,0.00
2013-11-5,52.8,41.8,30.6,40.0,31.3,18.0,84,67,55,30.67,30.46,12,3,16,0.00
2013-11-6,56.1,50.2,41.7,48.0,43.9,39.0,92,80,67,30.47,30.01,14,7,17,0.00
2013-11-7,57.8,50.2,37.1,55.0,47.0,32.0,95,88,72,30.01,29.71,15,5,18,0.13
2013-11-8,44.2,38.4,34.1,32.0,29.2,27.0,87,70,54,30.15,29.87,12,4,21,0.00
2013-11-9,45.5,39.5,33.6,31.0,29.2,27.0,81,67,51,30.24,29.97,10,3,14,0.00
2013-11-10,52.2,44.5,40.9,40.0,34.1,29.0,85,67,55,29.99,29.79,15,5,22,0.02
2013-11-11,48.5,44.5,38.6,33.0,30.2,28.0,68,58,48,30.15,29.91,15,5,23,0.00
2013-11-12,47.2,32.1,25.2,37.0,24.8,17.0,93,75,58,30.25,29.91,12,4,17,0.05
2013-11-13,36.2,27.6,18.6,20.0,16.2,14.0,85,63,42,30.36,30.23,9,3,15,0.00
2013-11-14,53.1,39.7,29.4,23.0,18.9,15.0,69,46,24,30.21,30.07,10,6,18,0.00
2013-11-15,59.3,46.4,38.1,25.0,21.1,16.0,49,38,23,30.20,30.09,10,6,14,0.00
2013-11-16,60.7,48.0,38.3,42.0,35.2,23.0,92,64,36,30.30,30.20,7,2,10,0.01
2013-11-17,58.9,53.3,43.5,57.0,51.8,41.0,97,94,91,30.25,29.75,16,6,20,0.01
2013-11-18,61.6,55.9,45.6,59.0,43.4,27.0,96,66,37,29.73,29.51,15,8,31,0.23
2013-11-19,45.6,37.7,29.3,31.0,25.2,21.0,71,61,53,30.35,29.72,16,6,25,0.00
2013-11-20,38.5,29.6,23.8,21.0,17.9,17.0,76,63,44,30.62,30.35,13,3,17,0.00
2013-11-21,46.8,35.7,21.4,38.0,26.3,16.0,81,69,54,30.64,30.37,7,2,12,0.00
2013-11-22,50.5,46.7,43.0,47.0,44.1,38.0,96,90,81,30.37,29.86,8,4,12,0.18
2013-11-23,50.0,37.6,24.8,46.0,24.6,10.0,86,60,44,30.01,29.84,22,8,25,0.00
2013-11-24,26.4,22.3,19.6,12.0,5.2,-2.0,67,49,29,30.30,29.94,22,10,29,0.00
2013-11-25,32.5,24.1,12.6,15.0,12.0,7.0,81,61,47,30.44,30.29,10,4,14,0.00
2013-11-26,39.3,32.3,29.7,38.0,24.5,14.0,96,74,52,30.32,29.83,9,3,19,0.43
2013-11-27,57.5,42.2,32.3,57.0,40.8,26.0,100,94,77,29.81,29.32,16,5,24,0.04
2013-11-28,32.0,26.9,22.3,24.0,15.0,10.0,74,62,47,30.44,29.64,21,6,24,0.04
2013-11-29,32.8,26.0,20.7,21.0,17.5,13.0,79,70,59,30.73,30.44,7,1,12,0.00
2013-11-30,32.0,24.9,14.6,25.0,14.7,10.0,85,66,43,30.77,30.39,8,4,12,0.00
2013-12-1,43.8,35.8,29.0,34.0,29.3,24.0,93,77,63,30.38,30.00,6,1,8,0.00
2013-12-2,43.9,35.9,32.1,38.0,32.8,28.0,95,88,77,30.00,29.86,3,0,5,0.02
2013-12-3,41.3,32.9,28.0,38.0,31.5,27.0,97,94,85,30.00,29.86,4,1,5,0.01
2013-12-4,47.3,37.3,27.9,40.0,32.7,27.0,96,84,65,30.13,29.99,5,1,8,0.00
2013-12-5,53.8,50.6,44.8,53.0,49.1,40.0,97,95,83,30.12,29.91,11,5,14,0.09
2013-12-6,54.1,41.4,31.5,54.0,39.4,30.0,98,92,79,30.14,29.85,9,4,17,0.18
2013-12-7,36.9,31.3,26.2,31.0,26.2,17.0,96,82,63,30.50,30.10,7,3,13,0.27
2013-12-8,28.5,25.3,19.5,23.0,19.2,15.0,88,78,68,30.59,30.42,5,1,8,0.00
2013-12-9,32.9,30.2,25.4,32.0,29.0,23.0,97,95,89,30.41,29.93,12,3,13,0.00
2013-12-10,31.9,29.2,23.4,31.0,27.4,19.0,96,93,81,30.05,29.82,9,4,16,0.00
2013-12-11,27.2,23.9,20.4,20.0,17.4,15.0,81,76,69,30.25,30.06,13,6,16,0.00
2013-12-12,23.0,18.9,15.0,17.0,10.6,7.0,86,71,55,30.32,30.09,9,4,15,0.00
2013-12-13,30.2,22.6,16.5,19.0,12.6,7.0,77,66,56,30.34,30.05,19,7,24,0.00
2013-12-14,21.0,16.3,13.9,19.0,13.0,10.0,93,87,67,30.51,29.94,8,2,12,0.00
2013-12-15,31.3,26.6,21.2,30.0,24.0,20.0,95,90,75,29.90,29.55,23,4,23,0.00
2013-12-16,27.4,22.5,14.4,22.0,11.6,7.0,84,63,52,30.19,29.76,13,5,20,0.01
2013-12-17,19.2,15.0,10.2,17.0,11.9,5.0,92,87,72,30.21,29.95,5,1,8,0.00
2013-12-18,32.1,22.4,9.7,26.0,18.0,7.0,92,84,71,30.11,29.93,10,3,14,0.10
2013-12-19,42.5,33.5,25.1,28.0,23.4,19.0,78,68,51,30.13,29.97,13,6,17,0.03
2013-12-20,51.6,42.8,36.7,33.0,31.1,27.0,77,64,47,30.08,29.92,11,6,16,0.22
2013-12-21,56.3,49.5,43.9,49.0,41.4,32.0,92,74,61,29.95,29.84,12,6,15,0.00
2013-12-22,65.2,60.6,51.8,62.0,56.8,50.0,96,87,77,29.91,29.71,20,8,23,0.02
2013-12-23,59.0,46.4,34.2,56.0,44.7,30.0,97,94,83,30.12,29.88,12,3,15,0.01
2013-12-24,34.1,28.6,20.3,29.0,22.2,9.0,93,77,61,30.29,30.07,18,4,20,0.01
2013-12-25,22.2,18.1,13.0,13.0,7.8,5.0,73,65,54,30.50,30.29,14,4,16,0.00
2013-12-26,30.1,26.1,22.2,25.0,21.3,13.0,89,82,69,30.41,30.13,11,5,13,0.00
2013-12-27,34.4,28.7,22.6,24.0,21.8,18.0,88,76,62,30.31,30.21,11,5,16,0.00
2013-12-28,48.1,37.8,28.2,29.0,26.6,23.0,82,65,48,30.23,30.02,13,6,20,0.00
2013-12-29,44.2,39.4,34.4,37.0,32.5,28.0,96,78,58,30.02,29.47,9,5,17,0.19
2013-12-30,39.2,29.0,13.8,36.0,23.6,8.0,100,80,63,30.18,29.63,11,4,17,0.19
2013-12-31,26.4,18.7,11.3,22.0,12.6,7.0,91,77,63,30.23,30.02,9,4,19,0.00
2014-1-1,27.8,21.9,17.1,19.0,13.3,8.0,90,70,58,30.38,30.22,8,4,14,0.00
2014-1-2,21.0,11.1,2.2,19.0,8.5,-1.0,92,89,87,30.28,29.77,10,4,15,0.00